Tappan, New York
Current Conditions -  °F | °C
As of 5:56 AM on Friday 19 Dec 2014 (Local Time) from KHPN Reporting Station
Broken Clouds Broken Clouds  
Wind Chill: -3°   Ceiling: 3800
Heat Index:   Visibility: 10mi
Dew Point: -5°   Wind: 13mph
Humidity: 61%   Direction: 310°NW
Pressure: 29.95"   Gusts: NA
Location:  41.02°N, 73.95°W
Report Text: KHPN 191056Z 31011KT 10SM BKN038 02/M05 A2995 RMK AO2 SLP148 T00171050
Loading
Personal Weather Stations






























Interactive Weather Map New forecast layout! Learn more

10-Day Weather Forecast

Advertisements
Track Severe Weather on mobile